Time;durP1;ratioP1;P1;durP2;ratioP2;P2;SDS_P1;SDS_P2;PMS_P1;PMS_P2;Temp;Humidity;BMP_temperature;BMP_pressure;BME280_temperature;BME280_humidity;BME280_pressure;Samples;Min_cycle;Max_cycle;Signal;HPM_P1;HPM_P2
2023/09/16 00:00:08;;;;;;;15.23;12.52;;;13.90;99.90;;;;;;2089500;28;20043;-78
2023/09/16 00:01:08;;;;;;;15.00;11.98;;;13.80;99.90;;;;;;2095427;28;20111;-78
2023/09/16 00:02:09;;;;;;;15.30;12.35;;;13.80;99.90;;;;;;2088023;28;20028;-78
2023/09/16 00:03:10;;;;;;;13.55;11.52;;;13.80;99.90;;;;;;2091388;28;20149;-77
2023/09/16 00:04:11;;;;;;;14.77;12.20;;;13.80;99.90;;;;;;2093574;28;20046;-78
2023/09/16 00:05:12;;;;;;;15.45;12.30;;;13.80;99.90;;;;;;2092931;28;20039;-78
2023/09/16 00:06:13;;;;;;;18.00;12.65;;;13.80;99.90;;;;;;2091804;28;20029;-78
2023/09/16 00:07:13;;;;;;;14.73;12.13;;;13.80;99.90;;;;;;2091840;28;20052;-78
2023/09/16 00:08:14;;;;;;;17.08;12.93;;;13.80;99.90;;;;;;2088496;28;20657;-77
2023/09/16 00:09:15;;;;;;;16.48;13.48;;;13.80;99.90;;;;;;2085338;28;20426;-78
2023/09/16 00:10:15;;;;;;;16.25;13.65;;;13.80;99.90;;;;;;2090771;28;20392;-76
2023/09/16 00:11:16;;;;;;;17.92;14.48;;;13.80;99.90;;;;;;2088114;28;20044;-76
2023/09/16 00:12:16;;;;;;;17.38;13.38;;;13.80;99.90;;;;;;2089145;28;20029;-77
2023/09/16 00:13:18;;;;;;;14.52;12.65;;;13.80;99.90;;;;;;2091107;28;20016;-77
2023/09/16 00:14:19;;;;;;;16.50;13.25;;;13.80;99.90;;;;;;2094778;28;20008;-77
2023/09/16 00:15:21;;;;;;;17.15;13.30;;;13.80;99.90;;;;;;2090846;28;20031;-78
2023/09/16 00:16:22;;;;;;;16.05;13.35;;;13.70;99.90;;;;;;2091924;28;20029;-77
2023/09/16 00:17:23;;;;;;;18.15;13.45;;;13.80;99.90;;;;;;2095003;28;20160;-77
2023/09/16 00:18:23;;;;;;;20.50;14.07;;;13.80;99.90;;;;;;2095644;28;20035;-77
2023/09/16 00:19:24;;;;;;;15.75;13.43;;;13.80;99.90;;;;;;2087528;28;20025;-77
2023/09/16 00:20:26;;;;;;;15.20;13.35;;;13.80;99.90;;;;;;2094203;28;20414;-77
2023/09/16 00:21:27;;;;;;;16.73;13.23;;;13.80;99.90;;;;;;2091209;28;20044;-74
2023/09/16 00:22:28;;;;;;;16.90;13.65;;;13.80;99.90;;;;;;2095815;28;20042;-77
2023/09/16 00:23:28;;;;;;;16.77;14.10;;;13.70;99.90;;;;;;2085977;28;20036;-77
2023/09/16 00:24:29;;;;;;;17.50;13.68;;;13.70;99.90;;;;;;2091100;28;20130;-78
2023/09/16 00:25:30;;;;;;;16.48;13.30;;;13.70;99.90;;;;;;2084673;28;20270;-78
2023/09/16 00:26:32;;;;;;;17.13;13.43;;;13.70;99.90;;;;;;2074712;28;20025;-77
2023/09/16 00:27:33;;;;;;;15.93;13.38;;;13.70;99.90;;;;;;2091846;28;20036;-78
2023/09/16 00:28:35;;;;;;;16.90;13.82;;;13.70;99.90;;;;;;2091254;28;20028;-78
2023/09/16 00:29:36;;;;;;;16.63;13.90;;;13.70;99.90;;;;;;2091361;28;20370;-77
2023/09/16 00:30:42;;;;;;;15.13;12.88;;;13.70;99.90;;;;;;2092015;28;20032;-77
2023/09/16 00:31:42;;;;;;;15.35;12.80;;;13.70;99.90;;;;;;2084424;28;20033;-77
2023/09/16 00:32:43;;;;;;;16.60;12.07;;;13.70;99.90;;;;;;2086680;28;20020;-78
2023/09/16 00:33:44;;;;;;;15.05;13.32;;;13.70;99.90;;;;;;2082190;28;20028;-77
2023/09/16 00:34:44;;;;;;;15.27;13.23;;;13.60;99.90;;;;;;2091432;28;20067;-78
2023/09/16 00:35:45;;;;;;;15.60;13.10;;;13.60;99.90;;;;;;2087333;28;20573;-77
2023/09/16 00:36:46;;;;;;;16.63;12.82;;;13.60;99.90;;;;;;2085218;28;20029;-78
2023/09/16 00:37:47;;;;;;;16.20;12.38;;;13.60;99.90;;;;;;2090886;28;20485;-78
2023/09/16 00:38:47;;;;;;;16.15;13.27;;;13.60;99.90;;;;;;2095381;28;20182;-78
2023/09/16 00:39:48;;;;;;;15.88;13.35;;;13.60;99.90;;;;;;2094002;28;20037;-78
2023/09/16 00:40:49;;;;;;;15.63;13.05;;;13.60;99.90;;;;;;2094674;28;20036;-78
2023/09/16 00:41:50;;;;;;;15.00;12.85;;;13.60;99.90;;;;;;2087617;28;20482;-77
2023/09/16 00:42:51;;;;;;;15.10;12.23;;;13.60;99.90;;;;;;2075861;28;20097;-77
2023/09/16 00:43:52;;;;;;;15.82;12.73;;;13.60;99.90;;;;;;2090551;28;20056;-77
2023/09/16 00:44:52;;;;;;;15.27;12.85;;;13.50;99.90;;;;;;2084694;28;20035;-77
2023/09/16 00:45:53;;;;;;;15.70;12.68;;;13.60;99.90;;;;;;2084784;28;20040;-77
2023/09/16 00:46:53;;;;;;;15.05;12.25;;;13.60;99.90;;;;;;2079255;28;20021;-77
2023/09/16 00:47:54;;;;;;;15.35;12.38;;;13.60;99.90;;;;;;2084109;28;20101;-77
2023/09/16 00:48:55;;;;;;;14.85;12.80;;;13.50;99.90;;;;;;2088901;28;20028;-76
2023/09/16 00:49:57;;;;;;;17.33;12.77;;;13.50;99.90;;;;;;2087645;28;20126;-77
2023/09/16 00:50:58;;;;;;;16.08;12.95;;;13.50;99.90;;;;;;2095086;28;20036;-77
2023/09/16 00:51:59;;;;;;;15.10;12.80;;;13.50;99.90;;;;;;2089284;28;20060;-77
2023/09/16 00:53:00;;;;;;;16.60;12.38;;;13.50;99.90;;;;;;2088814;28;20034;-77
2023/09/16 00:54:02;;;;;;;14.05;12.55;;;13.50;99.90;;;;;;2089436;28;20513;-77
2023/09/16 00:55:03;;;;;;;15.38;12.68;;;13.50;99.90;;;;;;2092139;28;20082;-77
2023/09/16 00:56:04;;;;;;;14.02;11.68;;;13.40;99.90;;;;;;2078534;28;20029;-76
2023/09/16 00:57:11;;;;;;;13.65;12.10;;;13.40;99.90;;;;;;2083296;28;20025;-79
2023/09/16 00:58:12;;;;;;;15.32;13.00;;;13.40;99.90;;;;;;2088517;28;20044;-78
2023/09/16 00:59:13;;;;;;;14.68;12.48;;;13.40;99.90;;;;;;2080152;28;20040;-78
2023/09/16 01:00:16;;;;;;;14.13;11.80;;;13.40;99.90;;;;;;2093859;28;20808;-78
2023/09/16 01:01:17;;;;;;;15.15;12.35;;;13.40;99.90;;;;;;2091634;28;20111;-78
2023/09/16 01:02:17;;;;;;;14.00;11.88;;;13.30;99.90;;;;;;2089181;28;20032;-79
2023/09/16 01:03:19;;;;;;;16.38;12.20;;;13.30;99.90;;;;;;2089462;28;20655;-77
2023/09/16 01:04:21;;;;;;;15.98;12.23;;;13.30;99.90;;;;;;2086451;28;20035;-78
2023/09/16 01:05:22;;;;;;;14.15;12.20;;;13.30;99.90;;;;;;2083420;28;20044;-77
2023/09/16 01:06:23;;;;;;;14.45;12.20;;;13.40;99.90;;;;;;2087919;28;20014;-78
2023/09/16 01:07:24;;;;;;;15.63;11.98;;;13.30;99.90;;;;;;2090435;28;20028;-77
2023/09/16 01:08:25;;;;;;;14.82;12.00;;;13.30;99.90;;;;;;2082558;28;20118;-77
2023/09/16 01:09:26;;;;;;;16.95;12.35;;;13.30;99.90;;;;;;2091092;28;20029;-77
2023/09/16 01:10:27;;;;;;;15.95;13.13;;;13.30;99.90;;;;;;2091825;28;20024;-78
2023/09/16 01:11:27;;;;;;;15.75;12.82;;;13.30;99.90;;;;;;2086964;28;20024;-77
2023/09/16 01:12:28;;;;;;;14.90;12.57;;;13.30;99.90;;;;;;2087005;28;20025;-77
2023/09/16 01:13:29;;;;;;;15.48;12.27;;;13.30;99.90;;;;;;2087014;28;20029;-78
2023/09/16 01:14:29;;;;;;;13.15;11.80;;;13.30;99.90;;;;;;2083049;28;20098;-78
2023/09/16 01:15:33;;;;;;;15.32;12.32;;;13.30;99.90;;;;;;2090675;28;20016;-78
2023/09/16 01:17:02;;;;;;;16.25;12.35;;;13.30;99.90;;;;;;2085161;28;20439;-78
2023/09/16 01:18:19;;;;;;;14.93;12.48;;;13.30;99.90;;;;;;2088497;28;20025;-77
2023/09/16 01:19:20;;;;;;;18.85;12.25;;;13.30;99.90;;;;;;2094895;28;20042;-77
2023/09/16 01:20:21;;;;;;;16.33;12.25;;;13.30;99.90;;;;;;2089705;28;20036;-79
2023/09/16 01:21:22;;;;;;;15.98;12.38;;;13.30;99.90;;;;;;2091047;28;20436;-77
2023/09/16 01:22:24;;;;;;;17.73;12.80;;;13.30;99.90;;;;;;2071364;28;20038;-79
2023/09/16 01:23:24;;;;;;;15.80;11.88;;;13.30;99.90;;;;;;2069945;28;20083;-78
2023/09/16 01:24:25;;;;;;;13.40;11.93;;;13.30;99.90;;;;;;2091226;28;20460;-78
2023/09/16 01:25:27;;;;;;;14.27;11.98;;;13.30;99.90;;;;;;2084738;28;20284;-76
2023/09/16 01:26:28;;;;;;;14.48;12.00;;;13.30;99.90;;;;;;2086667;28;20020;-78
2023/09/16 01:27:29;;;;;;;13.90;11.68;;;13.30;99.90;;;;;;2091517;28;20484;-77
2023/09/16 01:28:30;;;;;;;13.98;11.52;;;13.30;99.90;;;;;;2094690;28;20552;-77
2023/09/16 01:29:31;;;;;;;14.30;11.90;;;13.30;99.90;;;;;;2090945;28;20032;-78
2023/09/16 01:30:36;;;;;;;13.60;12.13;;;13.30;99.90;;;;;;2091000;28;20495;-77
2023/09/16 01:31:37;;;;;;;14.07;11.98;;;13.30;99.90;;;;;;2082398;28;20307;-77
2023/09/16 01:32:41;;;;;;;14.52;11.48;;;13.30;99.90;;;;;;2080656;28;20057;-78
2023/09/16 01:33:50;;;;;;;13.82;11.50;;;13.30;99.90;;;;;;2089224;28;20039;-77
2023/09/16 01:34:54;;;;;;;14.57;11.75;;;13.30;99.90;;;;;;2084654;28;20106;-77
2023/09/16 01:36:00;;;;;;;16.73;12.80;;;13.30;99.90;;;;;;2084436;28;20110;-80
2023/09/16 01:37:02;;;;;;;13.98;11.98;;;13.30;99.90;;;;;;2090035;28;20078;-76
2023/09/16 01:38:05;;;;;;;14.50;11.85;;;13.30;99.90;;;;;;2087784;28;20017;-76
2023/09/16 01:39:08;;;;;;;12.90;11.50;;;13.30;99.90;;;;;;2089881;28;20033;-77
2023/09/16 01:40:11;;;;;;;15.23;13.07;;;13.30;99.90;;;;;;2090111;28;20044;-77
2023/09/16 01:41:16;;;;;;;13.43;11.50;;;13.30;99.90;;;;;;2094136;28;20029;-77
2023/09/16 01:42:19;;;;;;;12.82;11.43;;;13.30;99.90;;;;;;2091083;28;20020;-78
2023/09/16 01:43:21;;;;;;;14.70;12.02;;;13.30;99.90;;;;;;2085144;28;20043;-79
2023/09/16 01:44:22;;;;;;;13.68;12.07;;;13.30;99.90;;;;;;2078947;28;20158;-78
2023/09/16 01:45:23;;;;;;;14.00;11.35;;;13.30;99.90;;;;;;2076333;28;20074;-78
2023/09/16 01:46:24;;;;;;;13.93;11.70;;;13.30;99.90;;;;;;2085009;28;20013;-78
2023/09/16 01:47:24;;;;;;;15.20;11.63;;;13.30;99.90;;;;;;2081036;28;20024;-78
2023/09/16 01:48:25;;;;;;;14.25;11.80;;;13.30;99.90;;;;;;2085681;28;20025;-78
2023/09/16 01:49:25;;;;;;;14.02;11.45;;;13.30;99.90;;;;;;2077259;28;20028;-77
2023/09/16 01:50:26;;;;;;;16.77;12.23;;;13.30;99.90;;;;;;2086809;28;20082;-78
2023/09/16 01:51:27;;;;;;;17.73;12.55;;;13.30;99.90;;;;;;2080848;28;20159;-78
2023/09/16 01:52:27;;;;;;;15.32;12.40;;;13.30;99.90;;;;;;2083496;28;20025;-78
2023/09/16 01:53:28;;;;;;;14.75;12.40;;;13.20;99.90;;;;;;2075779;28;20018;-78
2023/09/16 01:54:29;;;;;;;14.50;12.05;;;13.30;99.90;;;;;;2079800;28;20163;-79
2023/09/16 01:55:30;;;;;;;15.20;11.80;;;13.20;99.90;;;;;;2092450;28;20503;-78
2023/09/16 01:56:31;;;;;;;14.57;12.45;;;13.20;99.90;;;;;;2080039;28;20563;-77
2023/09/16 01:57:32;;;;;;;14.15;11.90;;;13.20;99.90;;;;;;2067470;28;20084;-78
2023/09/16 01:58:33;;;;;;;14.15;11.88;;;13.20;99.90;;;;;;2073334;28;20088;-78
2023/09/16 01:59:34;;;;;;;13.60;11.35;;;13.20;99.90;;;;;;2079026;28;20589;-78
2023/09/16 02:00:36;;;;;;;15.00;12.25;;;13.20;99.90;;;;;;2081685;28;20611;-77
2023/09/16 02:01:36;;;;;;;13.32;11.80;;;13.20;99.90;;;;;;2084080;28;20053;-76
2023/09/16 02:02:37;;;;;;;13.43;11.73;;;13.20;99.90;;;;;;2093360;28;20027;-77
2023/09/16 02:03:37;;;;;;;13.20;11.73;;;13.20;99.90;;;;;;2090360;28;20618;-77
2023/09/16 02:04:43;;;;;;;14.43;11.85;;;13.20;99.90;;;;;;2090886;28;20510;-78
2023/09/16 02:05:44;;;;;;;15.05;11.57;;;13.20;99.90;;;;;;2089247;28;20067;-78
2023/09/16 02:06:46;;;;;;;14.45;11.65;;;13.20;99.90;;;;;;2083850;28;20058;-80
2023/09/16 02:07:47;;;;;;;15.52;12.00;;;13.20;99.90;;;;;;2079952;28;20296;-78
2023/09/16 02:08:48;;;;;;;13.38;11.90;;;13.20;99.90;;;;;;2091991;28;20028;-78
2023/09/16 02:09:50;;;;;;;14.20;12.02;;;13.10;99.90;;;;;;2093828;28;20031;-77
2023/09/16 02:10:50;;;;;;;15.30;11.93;;;13.10;99.90;;;;;;2094453;28;20028;-79
2023/09/16 02:11:51;;;;;;;14.60;11.35;;;13.10;99.90;;;;;;2091042;28;20037;-78
2023/09/16 02:12:52;;;;;;;14.52;11.73;;;13.10;99.90;;;;;;2084148;28;20169;-78
2023/09/16 02:13:52;;;;;;;15.63;11.98;;;13.10;99.90;;;;;;2084198;28;20112;-77
2023/09/16 02:14:53;;;;;;;14.07;12.07;;;13.10;99.90;;;;;;2094429;28;20029;-78
2023/09/16 02:15:54;;;;;;;14.88;12.43;;;13.00;99.90;;;;;;2088630;28;20499;-77
2023/09/16 02:16:54;;;;;;;12.73;11.43;;;13.00;99.90;;;;;;2090835;28;20131;-78
2023/09/16 02:17:55;;;;;;;14.70;12.10;;;13.00;99.90;;;;;;2079819;28;20025;-79
2023/09/16 02:18:57;;;;;;;16.40;11.75;;;13.00;99.90;;;;;;2086359;28;20048;-78
2023/09/16 02:19:58;;;;;;;12.98;11.52;;;13.00;99.90;;;;;;2086957;28;20029;-78
2023/09/16 02:20:58;;;;;;;13.25;11.73;;;13.00;99.90;;;;;;2087008;28;20049;-69
2023/09/16 02:21:59;;;;;;;14.45;12.15;;;13.00;99.90;;;;;;2090922;28;20028;-72
2023/09/16 02:23:02;;;;;;;16.65;12.55;;;13.00;99.90;;;;;;2089102;28;20059;-72
2023/09/16 02:24:03;;;;;;;14.25;12.23;;;13.00;99.90;;;;;;2096349;28;20031;-76
2023/09/16 02:25:04;;;;;;;13.60;11.98;;;12.90;99.90;;;;;;2091134;28;20072;-66
2023/09/16 02:26:04;;;;;;;14.45;12.43;;;12.90;99.90;;;;;;2095780;28;20024;-69
2023/09/16 02:27:05;;;;;;;16.27;12.52;;;12.90;99.90;;;;;;2088236;28;20052;-67
2023/09/16 02:28:06;;;;;;;13.32;11.93;;;12.90;99.90;;;;;;2087043;28;20424;-67
2023/09/16 02:29:06;;;;;;;13.95;11.88;;;12.90;99.90;;;;;;2095337;28;20434;-66
2023/09/16 02:30:07;;;;;;;13.50;12.10;;;12.90;99.90;;;;;;2092410;28;20028;-68
2023/09/16 02:31:09;;;;;;;13.55;12.15;;;12.90;99.90;;;;;;2093309;28;20029;-67
2023/09/16 02:32:10;;;;;;;14.80;12.20;;;12.90;99.90;;;;;;2087464;28;20025;-68
2023/09/16 02:33:11;;;;;;;14.38;12.85;;;12.90;99.90;;;;;;2084104;28;20040;-68
2023/09/16 02:34:12;;;;;;;14.45;12.60;;;12.90;99.90;;;;;;2086304;28;20080;-68
2023/09/16 02:35:12;;;;;;;13.80;12.32;;;12.90;99.90;;;;;;2083334;28;20025;-68
2023/09/16 02:36:13;;;;;;;14.98;12.50;;;12.90;99.90;;;;;;2090124;28;20541;-68
2023/09/16 02:37:14;;;;;;;15.48;12.75;;;12.90;99.90;;;;;;2098909;28;20508;-69
2023/09/16 02:38:14;;;;;;;13.85;12.13;;;12.80;99.90;;;;;;2080779;28;20408;-68
2023/09/16 02:39:15;;;;;;;15.55;12.75;;;12.80;99.90;;;;;;2070330;28;20034;-68
2023/09/16 02:40:16;;;;;;;13.60;12.13;;;12.80;99.90;;;;;;2078097;28;20528;-68
2023/09/16 02:41:17;;;;;;;14.60;12.48;;;12.80;99.90;;;;;;2083351;28;20377;-68
2023/09/16 02:42:19;;;;;;;15.98;12.23;;;12.80;99.90;;;;;;2085235;28;20032;-68
2023/09/16 02:43:19;;;;;;;14.50;12.32;;;12.80;99.90;;;;;;2090067;28;20438;-68
2023/09/16 02:44:20;;;;;;;14.60;12.25;;;12.80;99.90;;;;;;2095606;28;20031;-68
2023/09/16 02:45:22;;;;;;;14.95;12.50;;;12.80;99.90;;;;;;2082249;28;20036;-67
2023/09/16 02:46:25;;;;;;;14.60;12.40;;;12.80;99.90;;;;;;2086085;28;20520;-68
2023/09/16 02:47:27;;;;;;;14.25;12.35;;;12.70;99.90;;;;;;2084705;28;20025;-67
2023/09/16 02:48:28;;;;;;;14.00;12.50;;;12.70;99.90;;;;;;2076832;28;20039;-68
2023/09/16 02:49:31;;;;;;;14.63;12.40;;;12.70;99.90;;;;;;2085171;28;20488;-68
2023/09/16 02:50:34;;;;;;;13.55;12.13;;;12.70;99.90;;;;;;2085999;28;20068;-68
2023/09/16 02:51:35;;;;;;;14.63;12.38;;;12.70;99.90;;;;;;2092659;28;20028;-68
2023/09/16 02:52:35;;;;;;;15.85;12.15;;;12.70;99.90;;;;;;2093062;28;20116;-68
2023/09/16 02:53:37;;;;;;;16.60;12.82;;;12.70;99.90;;;;;;2089096;28;20464;-68
2023/09/16 02:54:39;;;;;;;14.65;12.07;;;12.70;99.90;;;;;;2089163;28;20410;-69
2023/09/16 02:55:39;;;;;;;15.30;12.50;;;12.70;99.90;;;;;;2083169;28;20059;-68
2023/09/16 02:56:41;;;;;;;14.50;12.00;;;12.60;99.90;;;;;;2082478;28;20032;-68
2023/09/16 02:57:42;;;;;;;14.20;12.60;;;12.70;99.90;;;;;;2079381;28;20511;-67
2023/09/16 02:58:42;;;;;;;13.98;12.40;;;12.70;99.90;;;;;;2090586;28;20520;-68
2023/09/16 02:59:44;;;;;;;14.43;12.48;;;12.70;99.90;;;;;;2072031;28;20025;-68
2023/09/16 03:00:46;;;;;;;14.43;11.98;;;12.60;99.90;;;;;;2083549;28;20063;-68
2023/09/16 03:01:47;;;;;;;13.90;12.27;;;12.70;99.90;;;;;;2081230;28;20219;-68
2023/09/16 03:02:49;;;;;;;16.17;12.82;;;12.70;99.90;;;;;;2084102;28;20021;-67
2023/09/16 03:03:50;;;;;;;14.48;12.55;;;12.70;99.90;;;;;;2092692;28;20024;-68
2023/09/16 03:04:51;;;;;;;14.23;12.23;;;12.70;99.90;;;;;;2091179;28;20072;-70
2023/09/16 03:05:52;;;;;;;14.75;11.95;;;12.70;99.90;;;;;;2081386;28;20104;-69
2023/09/16 03:06:53;;;;;;;15.13;12.23;;;12.70;99.90;;;;;;2093487;28;20570;-69
2023/09/16 03:07:53;;;;;;;15.45;12.82;;;12.70;99.90;;;;;;2078600;28;20040;-68
2023/09/16 03:08:54;;;;;;;15.50;12.73;;;12.70;99.90;;;;;;2087522;28;20028;-69
2023/09/16 03:09:55;;;;;;;13.27;11.88;;;12.70;99.90;;;;;;2078828;28;20020;-68
2023/09/16 03:11:00;;;;;;;14.85;12.70;;;12.70;99.90;;;;;;2079073;28;20123;-69
2023/09/16 03:12:01;;;;;;;15.93;12.80;;;12.70;99.90;;;;;;2080430;28;20029;-69
2023/09/16 03:13:01;;;;;;;16.85;12.73;;;12.80;99.90;;;;;;2094781;28;20039;-69
2023/09/16 03:14:02;;;;;;;15.60;12.88;;;12.80;99.90;;;;;;2093431;28;20221;-69
2023/09/16 03:15:03;;;;;;;13.50;12.02;;;12.80;99.90;;;;;;2085092;28;20110;-69
2023/09/16 03:16:20;;;;;;;14.88;12.45;;;12.80;99.90;;;;;;2090985;28;20043;-69
2023/09/16 03:17:23;;;;;;;15.63;11.90;;;12.80;99.90;;;;;;2087055;28;20029;-69
2023/09/16 03:18:23;;;;;;;15.38;12.40;;;12.70;99.90;;;;;;2082644;28;20036;-69
2023/09/16 03:19:25;;;;;;;15.82;12.35;;;12.70;99.90;;;;;;2082125;28;20033;-68
2023/09/16 03:20:25;;;;;;;14.82;12.20;;;12.70;99.90;;;;;;2078848;28;20065;-68
2023/09/16 03:21:26;;;;;;;15.90;12.45;;;12.70;99.90;;;;;;2091470;28;20029;-68
2023/09/16 03:22:32;;;;;;;16.98;12.48;;;12.70;99.90;;;;;;2088838;28;20450;-67
2023/09/16 03:23:33;;;;;;;16.73;12.32;;;12.70;99.90;;;;;;2084302;28;20025;-68
2023/09/16 03:24:34;;;;;;;17.92;12.68;;;12.70;99.90;;;;;;2087143;28;20082;-67
2023/09/16 03:25:35;;;;;;;17.65;12.48;;;12.60;99.90;;;;;;2094643;28;20085;-67
2023/09/16 03:26:36;;;;;;;17.95;12.55;;;12.60;99.90;;;;;;2083799;28;20111;-68
2023/09/16 03:27:37;;;;;;;18.25;12.10;;;12.60;99.90;;;;;;2091663;28;20037;-67
2023/09/16 03:28:45;;;;;;;17.85;12.40;;;12.60;99.90;;;;;;2090573;28;20040;-67
2023/09/16 03:29:46;;;;;;;17.63;12.48;;;12.60;99.90;;;;;;2077369;28;20049;-67
2023/09/16 03:30:47;;;;;;;15.25;12.52;;;12.60;99.90;;;;;;2089755;28;20025;-69
2023/09/16 03:31:47;;;;;;;15.30;12.25;;;12.60;99.90;;;;;;2092108;28;20035;-67
2023/09/16 03:32:52;;;;;;;16.85;12.30;;;12.60;99.90;;;;;;2085036;28;20082;-68
2023/09/16 03:33:53;;;;;;;14.35;12.25;;;12.60;99.90;;;;;;2079748;28;20022;-68
2023/09/16 03:34:54;;;;;;;15.07;12.15;;;12.60;99.90;;;;;;2084891;28;20115;-68
2023/09/16 03:35:55;;;;;;;15.23;12.55;;;12.60;99.90;;;;;;2083064;28;20036;-69
2023/09/16 03:36:56;;;;;;;17.33;12.52;;;12.60;99.90;;;;;;2093318;28;20033;-68
2023/09/16 03:37:57;;;;;;;12.90;11.52;;;12.60;99.90;;;;;;2092641;28;20062;-69
2023/09/16 03:38:57;;;;;;;15.93;12.80;;;12.60;99.90;;;;;;2079287;28;20040;-69
2023/09/16 03:39:59;;;;;;;14.80;12.98;;;12.60;99.90;;;;;;2084351;28;20482;-67
2023/09/16 03:41:00;;;;;;;16.23;12.48;;;12.60;99.90;;;;;;2091410;28;20025;-68
2023/09/16 03:42:00;;;;;;;14.70;12.30;;;12.60;99.90;;;;;;2088735;28;20033;-67
2023/09/16 03:43:02;;;;;;;14.10;12.65;;;12.50;99.90;;;;;;2085673;28;20466;-67
2023/09/16 03:44:03;;;;;;;16.27;12.07;;;12.50;99.90;;;;;;2085103;28;20741;-68
2023/09/16 03:45:05;;;;;;;19.17;12.15;;;12.50;99.90;;;;;;2093981;28;20568;-67
2023/09/16 03:46:06;;;;;;;15.20;12.07;;;12.50;99.90;;;;;;2083769;28;20035;-67
2023/09/16 03:47:09;;;;;;;14.18;12.10;;;12.60;99.90;;;;;;2086347;28;20115;-68
2023/09/16 03:48:11;;;;;;;15.85;12.00;;;12.60;99.90;;;;;;2091163;28;20045;-68
2023/09/16 03:49:13;;;;;;;14.23;12.20;;;12.60;99.90;;;;;;2082898;28;20112;-68
2023/09/16 03:50:15;;;;;;;13.57;12.00;;;12.50;99.90;;;;;;2081070;28;20028;-68
2023/09/16 03:51:15;;;;;;;15.13;12.40;;;12.50;99.90;;;;;;2086486;28;20033;-68
2023/09/16 03:52:16;;;;;;;14.80;12.02;;;12.50;99.90;;;;;;2087184;28;20033;-68
2023/09/16 03:53:21;;;;;;;15.57;11.85;;;12.50;99.90;;;;;;2085025;28;20036;-67
2023/09/16 03:54:22;;;;;;;13.63;11.88;;;12.50;99.90;;;;;;2093276;28;20055;-66
2023/09/16 03:55:23;;;;;;;16.77;12.93;;;12.50;99.90;;;;;;2085381;28;20119;-68
2023/09/16 03:56:24;;;;;;;14.05;12.20;;;12.50;99.90;;;;;;2078241;28;20033;-69
2023/09/16 03:57:24;;;;;;;16.50;12.43;;;12.50;99.90;;;;;;2093512;28;20127;-68
2023/09/16 03:58:25;;;;;;;14.73;12.15;;;12.50;99.90;;;;;;2095006;28;20492;-71
2023/09/16 03:59:26;;;;;;;16.90;12.07;;;12.50;99.90;;;;;;2082734;28;20028;-71
2023/09/16 04:00:26;;;;;;;15.25;12.32;;;12.50;99.90;;;;;;2086923;28;20060;-72
2023/09/16 04:01:27;;;;;;;16.17;12.13;;;12.50;99.90;;;;;;2094465;28;20602;-72
2023/09/16 04:02:27;;;;;;;13.93;12.27;;;12.50;99.90;;;;;;2087613;28;20532;-71
2023/09/16 04:03:29;;;;;;;16.63;12.52;;;12.50;99.90;;;;;;2092528;28;20024;-71
2023/09/16 04:04:30;;;;;;;14.82;11.80;;;12.50;99.90;;;;;;2086172;28;20037;-71
2023/09/16 04:05:30;;;;;;;14.15;12.35;;;12.50;99.90;;;;;;2091130;28;20050;-72
2023/09/16 04:06:31;;;;;;;15.38;12.25;;;12.50;99.90;;;;;;2087941;28;20543;-72
2023/09/16 04:07:32;;;;;;;13.93;12.32;;;12.40;99.90;;;;;;2081559;28;20039;-71
2023/09/16 04:08:32;;;;;;;13.98;11.85;;;12.40;99.90;;;;;;2090435;28;20025;-68
2023/09/16 04:09:34;;;;;;;15.65;12.40;;;12.40;99.90;;;;;;2090806;28;20228;-68
2023/09/16 04:10:34;;;;;;;14.77;11.88;;;12.40;99.90;;;;;;2084791;28;20032;-68
2023/09/16 04:11:35;;;;;;;14.38;12.07;;;12.50;99.90;;;;;;2080653;28;20200;-68
2023/09/16 04:12:36;;;;;;;14.73;12.20;;;12.50;99.90;;;;;;2091768;28;20029;-68
2023/09/16 04:13:37;;;;;;;14.68;12.32;;;12.50;99.90;;;;;;2090561;28;20111;-68
2023/09/16 04:14:38;;;;;;;13.32;11.75;;;12.50;99.90;;;;;;2090417;28;20455;-68
2023/09/16 04:15:38;;;;;;;14.35;12.13;;;12.50;99.90;;;;;;2084582;28;20538;-68
2023/09/16 04:16:39;;;;;;;14.48;12.20;;;12.40;99.90;;;;;;2074956;28;20021;-67
2023/09/16 04:17:40;;;;;;;14.10;12.60;;;12.50;99.90;;;;;;2074843;28;20057;-68
2023/09/16 04:18:40;;;;;;;14.50;12.13;;;12.50;99.90;;;;;;2085980;28;20044;-68
2023/09/16 04:19:41;;;;;;;14.65;12.82;;;12.40;99.90;;;;;;2094330;28;20449;-69
2023/09/16 04:20:42;;;;;;;14.23;12.07;;;12.50;99.90;;;;;;2083442;28;20029;-67
2023/09/16 04:21:42;;;;;;;16.60;12.50;;;12.50;99.90;;;;;;2082336;28;20132;-68
2023/09/16 04:22:43;;;;;;;15.32;12.57;;;12.40;99.90;;;;;;2093897;28;21731;-67
2023/09/16 04:23:44;;;;;;;16.42;12.93;;;12.40;99.90;;;;;;2090977;28;20029;-68
2023/09/16 04:24:45;;;;;;;15.07;12.50;;;12.40;99.90;;;;;;2078862;28;20025;-67
2023/09/16 04:25:45;;;;;;;15.10;12.40;;;12.40;99.90;;;;;;2082049;28;20500;-67
2023/09/16 04:26:46;;;;;;;15.30;12.55;;;12.40;99.90;;;;;;2080704;28;20024;-68
2023/09/16 04:27:48;;;;;;;15.05;12.77;;;12.40;99.90;;;;;;2074533;28;20420;-68
2023/09/16 04:28:50;;;;;;;17.85;12.88;;;12.40;99.90;;;;;;2078809;28;20500;-68
2023/09/16 04:29:50;;;;;;;15.30;13.00;;;12.40;99.90;;;;;;2086293;28;20034;-69
2023/09/16 04:30:52;;;;;;;14.88;13.23;;;12.40;99.90;;;;;;2070901;28;20087;-67
2023/09/16 04:31:53;;;;;;;17.25;13.18;;;12.40;99.90;;;;;;2078836;28;20034;-69
2023/09/16 04:32:55;;;;;;;16.55;13.45;;;12.40;99.90;;;;;;2085720;28;20033;-68
2023/09/16 04:33:56;;;;;;;16.65;13.38;;;12.40;99.90;;;;;;2085491;28;20029;-68
2023/09/16 04:34:58;;;;;;;18.80;13.63;;;12.50;99.90;;;;;;2076421;28;20492;-68
2023/09/16 04:36:00;;;;;;;14.40;12.68;;;12.50;99.90;;;;;;2088357;28;20033;-68
2023/09/16 04:37:02;;;;;;;13.50;12.02;;;12.50;99.90;;;;;;2086527;28;20645;-69
2023/09/16 04:38:03;;;;;;;17.75;13.35;;;12.50;99.90;;;;;;2077922;28;20060;-68
2023/09/16 04:39:04;;;;;;;14.10;12.23;;;12.50;99.90;;;;;;2078445;28;20029;-69
2023/09/16 04:40:11;;;;;;;16.95;12.65;;;12.50;99.90;;;;;;2081683;28;20032;-68
2023/09/16 04:41:13;;;;;;;14.18;12.60;;;12.50;99.90;;;;;;2088780;28;20047;-68
2023/09/16 04:42:14;;;;;;;14.43;11.90;;;12.50;99.90;;;;;;2075706;28;20033;-68
2023/09/16 04:43:15;;;;;;;14.23;12.23;;;12.60;99.90;;;;;;2081949;28;20412;-68
2023/09/16 04:44:16;;;;;;;14.07;12.52;;;12.60;99.90;;;;;;2085551;28;20040;-67
2023/09/16 04:45:17;;;;;;;13.23;11.82;;;12.60;99.90;;;;;;2082412;28;20141;-68
2023/09/16 04:46:18;;;;;;;15.60;12.27;;;12.60;99.90;;;;;;2081401;28;20029;-67
2023/09/16 04:47:21;;;;;;;15.30;12.75;;;12.70;99.90;;;;;;2080236;28;20123;-67
2023/09/16 04:48:22;;;;;;;14.98;12.15;;;12.70;99.90;;;;;;2086751;28;20035;-67
2023/09/16 04:49:23;;;;;;;15.27;12.68;;;12.70;99.90;;;;;;2089674;28;20120;-67
2023/09/16 04:50:25;;;;;;;13.98;12.40;;;12.70;99.90;;;;;;2090645;28;20032;-67
2023/09/16 04:51:26;;;;;;;14.10;12.15;;;12.70;99.90;;;;;;2083549;28;20033;-67
2023/09/16 04:52:27;;;;;;;13.43;11.55;;;12.70;99.90;;;;;;2088567;28;20112;-67
2023/09/16 04:53:31;;;;;;;19.38;12.63;;;12.70;99.90;;;;;;2086871;28;20028;-67
2023/09/16 04:54:32;;;;;;;13.55;11.80;;;12.70;99.90;;;;;;2084382;28;20081;-67
2023/09/16 04:55:33;;;;;;;15.05;12.02;;;12.70;99.90;;;;;;2077961;28;20233;-68
2023/09/16 04:56:35;;;;;;;15.45;12.23;;;12.70;99.90;;;;;;2084541;28;20255;-68
2023/09/16 04:57:36;;;;;;;15.07;12.40;;;12.70;99.90;;;;;;2092278;28;20077;-68
2023/09/16 04:58:37;;;;;;;16.35;12.82;;;12.70;99.90;;;;;;2079587;28;20009;-68
2023/09/16 04:59:39;;;;;;;15.10;12.45;;;12.70;99.90;;;;;;2082570;28;20036;-67
2023/09/16 05:00:41;;;;;;;15.77;12.15;;;12.70;99.90;;;;;;2082147;28;20223;-68
2023/09/16 05:01:41;;;;;;;13.57;12.18;;;12.70;99.90;;;;;;2090685;28;20174;-68
2023/09/16 05:02:47;;;;;;;14.20;12.18;;;12.70;99.90;;;;;;2088553;28;20036;-67
2023/09/16 05:03:48;;;;;;;14.90;12.55;;;12.70;99.90;;;;;;2082864;28;20479;-67
2023/09/16 05:04:48;;;;;;;13.80;11.85;;;12.70;99.90;;;;;;2090614;28;20025;-68
2023/09/16 05:05:53;;;;;;;18.17;11.70;;;12.80;99.90;;;;;;2074302;28;20072;-68
2023/09/16 05:06:56;;;;;;;13.48;11.15;;;12.80;99.90;;;;;;2071975;28;20032;-68
2023/09/16 05:07:57;;;;;;;14.73;11.77;;;12.80;99.90;;;;;;2082335;28;20025;-68
2023/09/16 05:08:59;;;;;;;18.27;15.90;;;12.80;99.90;;;;;;2085248;28;20033;-68
2023/09/16 05:09:59;;;;;;;18.08;14.50;;;12.80;99.90;;;;;;2085213;28;20024;-68
2023/09/16 05:11:00;;;;;;;13.68;12.02;;;12.80;99.90;;;;;;2088693;28;20103;-68
2023/09/16 05:12:04;;;;;;;13.38;11.60;;;12.80;99.90;;;;;;2091260;28;20107;-68